createdAt,value
2023-03-25T00:00:19.465Z,11.70
2023-03-25T00:03:04.961Z,11.60
2023-03-25T00:05:50.584Z,11.60
2023-03-25T00:08:36.700Z,11.70
2023-03-25T00:11:21.978Z,11.70
2023-03-25T00:14:08.373Z,11.70
2023-03-25T00:16:54.192Z,11.70
2023-03-25T00:19:41.596Z,11.70
2023-03-25T00:22:27.712Z,11.70
2023-03-25T00:25:19.044Z,11.70
2023-03-25T00:28:04.445Z,11.60
2023-03-25T00:30:51.888Z,11.70
2023-03-25T00:33:37.248Z,11.60
2023-03-25T00:36:31.346Z,11.70
2023-03-25T00:39:16.796Z,11.70
2023-03-25T00:42:02.629Z,11.60
2023-03-25T00:44:49.160Z,11.60
2023-03-25T00:47:34.378Z,11.70
2023-03-25T00:50:21.752Z,11.60
2023-03-25T00:53:08.547Z,11.60
2023-03-25T00:55:58.218Z,11.50
2023-03-25T00:58:46.053Z,11.50
2023-03-25T01:01:31.376Z,11.50
2023-03-25T01:04:18.200Z,11.50
2023-03-25T01:07:04.228Z,11.60
2023-03-25T01:09:49.918Z,11.60
2023-03-25T01:12:44.339Z,11.60
2023-03-25T01:15:32.548Z,11.60
2023-03-25T01:18:18.038Z,11.60
2023-03-25T01:21:06.329Z,11.50
2023-03-25T01:23:51.705Z,11.10
2023-03-25T01:26:37.899Z,10.90
2023-03-25T01:29:27.294Z,10.80
2023-03-25T01:32:13.569Z,10.60
2023-03-25T01:34:59.158Z,10.50
2023-03-25T01:37:46.864Z,10.50
2023-03-25T01:40:32.289Z,10.50
2023-03-25T01:43:20.004Z,10.60
2023-03-25T01:46:05.922Z,10.60
2023-03-25T01:48:51.646Z,10.70
2023-03-25T01:51:40.781Z,10.70
2023-03-25T01:54:27.653Z,10.70
2023-03-25T01:57:18.260Z,10.80
2023-03-25T02:00:08.707Z,10.80
2023-03-25T02:02:59.745Z,10.80
2023-03-25T02:05:59.667Z,10.80
2023-03-25T02:08:45.018Z,10.90
2023-03-25T02:11:30.807Z,10.90
2023-03-25T02:14:23.121Z,11.00
2023-03-25T02:17:39.013Z,10.90
2023-03-25T02:20:37.663Z,11.00
2023-03-25T02:23:58.016Z,11.00
2023-03-25T02:27:02.655Z,11.00
2023-03-25T02:30:30.800Z,11.00
2023-03-25T02:33:22.102Z,10.90
2023-03-25T02:36:39.716Z,11.00
2023-03-25T02:39:28.426Z,11.00
2023-03-25T02:42:39.403Z,11.00
2023-03-25T02:45:47.035Z,11.10
2023-03-25T02:48:47.949Z,11.00
2023-03-25T02:51:42.619Z,11.10
2023-03-25T02:54:30.320Z,11.10
2023-03-25T02:57:21.450Z,11.00
2023-03-25T03:00:15.433Z,11.00
2023-03-25T03:03:03.928Z,11.10
2023-03-25T03:05:53.818Z,11.10
2023-03-25T03:09:13.479Z,11.10
2023-03-25T03:12:08.040Z,11.20
2023-03-25T03:15:22.547Z,11.10
2023-03-25T03:18:34.457Z,11.10
2023-03-25T03:21:46.541Z,11.10
2023-03-25T03:25:03.882Z,11.10
2023-03-25T03:27:56.554Z,11.00
2023-03-25T03:30:54.383Z,11.00
2023-03-25T03:33:50.634Z,10.70
2023-03-25T03:36:41.431Z,10.50
2023-03-25T03:39:32.883Z,10.40
2023-03-25T03:42:21.455Z,10.30
2023-03-25T03:45:21.606Z,10.30
2023-03-25T03:48:18.703Z,10.30
2023-03-25T03:51:19.557Z,10.30
2023-03-25T03:54:13.419Z,10.10
2023-03-25T03:57:14.063Z,10.10
2023-03-25T04:00:10.104Z,10.00
2023-03-25T04:03:14.573Z,10.10
2023-03-25T04:06:26.880Z,10.00
2023-03-25T04:09:18.761Z,10.00
2023-03-25T04:12:19.333Z,10.10
2023-03-25T04:15:06.888Z,10.10
2023-03-25T04:17:53.821Z,10.00
2023-03-25T04:20:45.038Z,10.00
2023-03-25T04:23:30.360Z,10.10
2023-03-25T04:26:15.994Z,10.00
2023-03-25T04:29:01.958Z,10.00
2023-03-25T04:31:49.632Z,10.00
2023-03-25T04:34:35.012Z,10.00
2023-03-25T04:37:20.355Z,10.10
2023-03-25T04:40:07.282Z,10.10
2023-03-25T04:42:53.449Z,10.10
2023-03-25T04:45:38.857Z,10.20
2023-03-25T04:48:30.221Z,10.20
2023-03-25T04:51:16.065Z,10.20
2023-03-25T04:54:01.953Z,10.20
2023-03-25T04:56:51.733Z,10.30
2023-03-25T04:59:38.205Z,10.30
2023-03-25T05:02:24.134Z,10.40
2023-03-25T05:05:09.762Z,10.30
2023-03-25T05:07:58.206Z,10.30
2023-03-25T05:10:44.622Z,10.40
2023-03-25T05:13:29.836Z,10.30
2023-03-25T05:16:15.901Z,10.30
2023-03-25T05:19:03.668Z,10.30
2023-03-25T05:21:49.131Z,10.20
2023-03-25T05:24:34.664Z,10.20
2023-03-25T05:27:20.502Z,10.20
2023-03-25T05:30:07.711Z,10.20
2023-03-25T05:33:18.981Z,10.10
2023-03-25T05:36:04.949Z,10.10
2023-03-25T05:38:51.392Z,10.10
2023-03-25T05:41:39.979Z,10.10
2023-03-25T05:44:27.295Z,10.10
2023-03-25T05:47:13.997Z,10.20
2023-03-25T05:50:00.329Z,10.30
2023-03-25T05:52:49.516Z,10.30
2023-03-25T05:55:47.947Z,10.40
2023-03-25T05:58:33.089Z,10.60
2023-03-25T06:01:32.782Z,10.40
2023-03-25T06:04:19.639Z,10.40
2023-03-25T06:07:14.068Z,10.40
2023-03-25T06:10:01.929Z,10.40
2023-03-25T06:12:48.507Z,10.40
2023-03-25T06:15:39.031Z,10.30
2023-03-25T06:18:27.111Z,10.30
2023-03-25T06:21:15.136Z,10.30
2023-03-25T06:24:04.131Z,10.30
2023-03-25T06:26:52.088Z,10.40
2023-03-25T06:29:38.309Z,10.40
2023-03-25T06:32:25.818Z,10.40
2023-03-25T06:35:12.093Z,10.40
2023-03-25T06:37:57.814Z,10.40
2023-03-25T06:40:50.204Z,10.50
2023-03-25T06:43:35.607Z,10.50
2023-03-25T06:46:49.256Z,10.50
2023-03-25T06:49:56.837Z,10.60
2023-03-25T06:52:42.256Z,10.60
2023-03-25T06:55:27.849Z,10.50
2023-03-25T06:58:13.253Z,10.60
2023-03-25T07:01:03.818Z,10.60
2023-03-25T07:03:49.216Z,10.70
2023-03-25T07:06:35.027Z,10.70
2023-03-25T07:09:20.650Z,10.70
2023-03-25T07:12:08.958Z,10.80
2023-03-25T07:14:57.164Z,10.90
2023-03-25T07:17:49.179Z,11.00
2023-03-25T07:20:34.650Z,11.10
2023-03-25T07:23:20.581Z,11.10
2023-03-25T07:26:06.722Z,11.10
2023-03-25T07:28:54.667Z,11.10
2023-03-25T07:31:41.713Z,11.20
2023-03-25T07:34:27.357Z,11.20
2023-03-25T07:37:17.932Z,11.30
2023-03-25T07:40:03.876Z,11.30
2023-03-25T07:42:52.455Z,11.40
2023-03-25T07:45:44.051Z,11.40
2023-03-25T07:48:30.410Z,11.40
2023-03-25T07:51:21.030Z,11.50
2023-03-25T07:54:06.561Z,11.60
2023-03-25T07:56:55.693Z,11.60
2023-03-25T07:59:44.013Z,11.60
2023-03-25T08:02:32.318Z,11.60
2023-03-25T08:05:21.446Z,11.50
2023-03-25T08:08:07.654Z,11.50
2023-03-25T08:10:56.230Z,11.50
2023-03-25T08:13:41.829Z,11.60
2023-03-25T08:16:27.472Z,11.70
2023-03-25T08:19:13.258Z,11.80
2023-03-25T08:21:59.104Z,11.80
2023-03-25T08:24:44.534Z,11.90
2023-03-25T08:27:30.897Z,12.00
2023-03-25T08:30:17.952Z,12.10
2023-03-25T08:33:07.793Z,12.20
2023-03-25T08:35:55.727Z,12.30
2023-03-25T08:38:42.176Z,12.30
2023-03-25T08:41:27.526Z,12.30
2023-03-25T08:44:12.891Z,12.50
2023-03-25T08:46:58.516Z,12.50
2023-03-25T08:49:44.223Z,12.60
2023-03-25T08:52:29.856Z,12.60
2023-03-25T08:55:16.297Z,12.60
2023-03-25T08:58:06.356Z,12.60
2023-03-25T09:00:57.792Z,12.70
2023-03-25T09:03:43.846Z,12.70
2023-03-25T09:06:29.660Z,12.80
2023-03-25T09:09:36.581Z,12.70
2023-03-25T09:12:21.910Z,12.80
2023-03-25T09:15:08.475Z,12.90
2023-03-25T09:17:56.397Z,12.90
2023-03-25T09:20:42.714Z,13.00
2023-03-25T09:23:28.170Z,12.90
2023-03-25T09:26:13.621Z,12.90
2023-03-25T09:29:00.630Z,12.90
2023-03-25T09:31:46.221Z,13.00
2023-03-25T09:34:32.348Z,13.10
2023-03-25T09:37:18.894Z,13.10
2023-03-25T09:40:05.484Z,13.40
2023-03-25T09:43:26.324Z,13.50
2023-03-25T09:46:12.188Z,13.60
2023-03-25T09:48:59.749Z,13.70
2023-03-25T09:51:48.014Z,13.80
2023-03-25T09:54:38.956Z,13.80
2023-03-25T09:57:46.118Z,13.90
2023-03-25T10:00:33.528Z,14.00
2023-03-25T10:03:25.821Z,14.10
2023-03-25T10:06:21.127Z,14.20
2023-03-25T10:09:33.359Z,14.10
2023-03-25T10:12:38.083Z,14.00
2023-03-25T10:15:26.425Z,14.00
2023-03-25T10:18:14.917Z,14.20
2023-03-25T10:21:23.638Z,14.00
2023-03-25T10:24:16.709Z,13.80
2023-03-25T10:27:32.140Z,13.90
2023-03-25T10:30:35.372Z,13.90
2023-03-25T10:33:29.411Z,14.00
2023-03-25T10:36:19.152Z,14.20
2023-03-25T10:39:13.530Z,14.20
2023-03-25T10:42:20.724Z,14.30
2023-03-25T10:45:15.516Z,14.20
2023-03-25T10:48:16.370Z,14.20
2023-03-25T10:51:10.131Z,14.10
2023-03-25T10:53:56.141Z,14.30
2023-03-25T10:56:46.625Z,14.40
2023-03-25T10:59:48.302Z,14.50
2023-03-25T11:02:34.363Z,14.40
2023-03-25T11:05:23.475Z,14.40
2023-03-25T11:08:23.801Z,14.50
2023-03-25T11:11:10.315Z,14.60
2023-03-25T11:13:57.590Z,14.60
2023-03-25T11:16:47.322Z,14.40
2023-03-25T11:19:55.460Z,14.40
2023-03-25T11:22:47.713Z,14.40
2023-03-25T11:25:40.076Z,14.50
2023-03-25T11:28:42.580Z,14.70
2023-03-25T11:31:33.245Z,14.70
2023-03-25T11:34:22.383Z,14.70
2023-03-25T11:37:20.354Z,14.80
2023-03-25T11:40:15.410Z,14.80
2023-03-25T11:43:02.533Z,14.60
2023-03-25T11:45:50.152Z,14.70
2023-03-25T11:48:38.693Z,15.00
2023-03-25T11:51:31.909Z,15.20
2023-03-25T11:54:20.269Z,15.30
2023-03-25T11:57:11.860Z,15.40
2023-03-25T12:00:29.324Z,15.40
2023-03-25T12:03:14.896Z,15.30
2023-03-25T12:06:11.631Z,15.10
2023-03-25T12:09:03.898Z,15.10
2023-03-25T12:11:52.533Z,15.30
2023-03-25T12:14:48.836Z,15.90
2023-03-25T12:17:58.092Z,16.20
2023-03-25T12:21:02.208Z,16.40
2023-03-25T12:24:11.463Z,16.70
2023-03-25T12:27:11.325Z,17.00
2023-03-25T12:30:21.877Z,17.90
2023-03-25T12:33:37.860Z,18.10
2023-03-25T12:37:11.294Z,17.90
2023-03-25T12:40:25.831Z,18.20
2023-03-25T12:43:21.687Z,18.80
2023-03-25T12:46:25.800Z,18.70
2023-03-25T12:49:24.856Z,18.50
2023-03-25T12:52:26.298Z,18.30
2023-03-25T12:55:23.657Z,18.00
2023-03-25T12:58:34.141Z,17.40
2023-03-25T13:01:30.658Z,17.00
2023-03-25T13:04:44.050Z,16.70
2023-03-25T13:07:38.965Z,17.70
2023-03-25T13:10:31.250Z,18.50
2023-03-25T13:13:23.327Z,18.80
2023-03-25T13:16:22.340Z,18.70
2023-03-25T13:19:16.396Z,19.40
2023-03-25T13:22:13.749Z,20.50
2023-03-25T13:25:03.920Z,20.20
2023-03-25T13:27:52.166Z,19.30
2023-03-25T13:30:40.633Z,18.30
2023-03-25T13:33:31.093Z,17.40
2023-03-25T13:36:38.161Z,16.80
2023-03-25T13:39:29.590Z,15.90
2023-03-25T13:42:46.571Z,14.70
2023-03-25T13:45:47.577Z,13.70
2023-03-25T13:48:47.256Z,13.00
2023-03-25T13:51:34.771Z,13.00
2023-03-25T13:54:29.461Z,13.80
2023-03-25T13:57:41.596Z,14.60
2023-03-25T14:00:38.978Z,14.80
2023-03-25T14:04:02.335Z,14.60
2023-03-25T14:06:58.982Z,16.20
2023-03-25T14:10:23.208Z,17.30
2023-03-25T14:13:17.423Z,18.80
2023-03-25T14:16:10.315Z,20.00
2023-03-25T14:19:14.767Z,21.10
2023-03-25T14:22:06.447Z,21.90
2023-03-25T14:24:54.844Z,22.80
2023-03-25T14:27:40.742Z,22.60
2023-03-25T14:30:28.732Z,22.80
2023-03-25T14:33:14.297Z,23.40
2023-03-25T14:35:59.930Z,24.00
2023-03-25T14:38:53.992Z,24.90
2023-03-25T14:42:00.132Z,25.00
2023-03-25T14:44:54.530Z,24.90
2023-03-25T14:47:55.898Z,24.10
2023-03-25T14:50:41.183Z,23.40
2023-03-25T14:53:27.413Z,24.00
2023-03-25T14:56:19.574Z,23.90
2023-03-25T14:59:16.075Z,22.30
2023-03-25T15:02:09.554Z,22.00
2023-03-25T15:05:13.978Z,20.70
2023-03-25T15:08:17.467Z,20.70
2023-03-25T15:11:33.745Z,20.10
2023-03-25T15:14:24.568Z,18.70
2023-03-25T15:17:31.677Z,17.70
2023-03-25T15:20:23.000Z,16.80
2023-03-25T15:23:33.496Z,16.50
2023-03-25T15:26:39.176Z,16.10
2023-03-25T15:29:48.704Z,15.90
2023-03-25T15:33:07.475Z,16.40
2023-03-25T15:36:02.723Z,15.80
2023-03-25T15:42:26.505Z,15.20
2023-03-25T15:45:14.690Z,14.90
2023-03-25T15:48:23.347Z,14.90
2023-03-25T15:51:34.667Z,14.80
2023-03-25T15:54:37.157Z,14.60
2023-03-25T15:57:49.946Z,14.90
2023-03-25T16:00:40.674Z,14.70
2023-03-25T16:03:30.260Z,14.40
2023-03-25T16:06:23.817Z,14.20
2023-03-25T16:09:19.459Z,14.30
2023-03-25T16:12:10.342Z,14.50
2023-03-25T16:14:55.836Z,14.50
2023-03-25T16:17:43.212Z,14.30
2023-03-25T16:20:32.134Z,14.10
2023-03-25T16:23:21.140Z,13.90
2023-03-25T16:26:06.776Z,13.80
2023-03-25T16:28:52.604Z,13.60
2023-03-25T16:31:42.798Z,13.40
2023-03-25T16:34:37.920Z,13.20
2023-03-25T16:37:34.170Z,13.10
2023-03-25T16:40:28.313Z,13.10
2023-03-25T16:43:26.345Z,13.00
2023-03-25T16:46:18.407Z,13.00
2023-03-25T16:49:12.220Z,13.10
2023-03-25T16:52:01.120Z,12.90
2023-03-25T16:55:14.850Z,12.80
2023-03-25T16:58:02.226Z,12.70
2023-03-25T17:00:50.163Z,12.60
2023-03-25T17:03:43.218Z,12.50
2023-03-25T17:06:35.418Z,12.40
2023-03-25T17:09:33.976Z,12.30
2023-03-25T17:12:24.121Z,12.20
2023-03-25T17:15:19.195Z,12.20
2023-03-25T17:18:13.408Z,12.20
2023-03-25T17:21:01.513Z,12.00
2023-03-25T17:23:48.383Z,11.80
2023-03-25T17:26:53.993Z,11.60
2023-03-25T17:30:00.121Z,11.50
2023-03-25T17:32:45.998Z,11.40
2023-03-25T17:35:32.012Z,11.40
2023-03-25T17:38:28.312Z,11.40
2023-03-25T17:41:17.016Z,11.40
2023-03-25T17:44:06.807Z,11.50
2023-03-25T17:46:52.116Z,11.50
2023-03-25T17:49:37.643Z,11.50
2023-03-25T17:52:23.196Z,11.50
2023-03-25T17:55:10.213Z,11.50
2023-03-25T17:57:56.450Z,11.60
2023-03-25T18:00:42.335Z,11.60
2023-03-25T18:03:30.592Z,11.60
2023-03-25T18:06:16.290Z,11.60
2023-03-25T18:09:02.491Z,11.60
2023-03-25T18:11:54.461Z,11.50
2023-03-25T18:14:39.821Z,11.40
2023-03-25T18:17:25.670Z,11.30
2023-03-25T18:20:22.246Z,11.20
2023-03-25T18:23:08.133Z,11.10
2023-03-25T18:25:53.865Z,11.10
2023-03-25T18:28:42.947Z,11.00
2023-03-25T18:31:29.639Z,11.10
2023-03-25T18:34:15.932Z,10.90
2023-03-25T18:37:01.434Z,10.90
2023-03-25T18:39:46.755Z,10.80
2023-03-25T18:42:32.112Z,11.00
2023-03-25T18:45:19.981Z,11.00
2023-03-25T18:48:06.360Z,11.00
2023-03-25T18:50:55.234Z,11.00
2023-03-25T18:53:41.260Z,11.00
2023-03-25T18:56:26.931Z,11.10
2023-03-25T18:59:18.652Z,11.10
2023-03-25T19:02:04.048Z,11.10
2023-03-25T19:05:00.082Z,11.10
2023-03-25T19:07:48.722Z,11.20
2023-03-25T19:10:36.093Z,11.20
2023-03-25T19:13:23.858Z,11.20
2023-03-25T19:16:09.585Z,11.30
2023-03-25T19:18:55.311Z,11.30
2023-03-25T19:21:42.181Z,11.30
2023-03-25T19:24:27.917Z,11.30
2023-03-25T19:27:13.612Z,11.30
2023-03-25T19:29:59.138Z,11.20
2023-03-25T19:32:47.030Z,11.20
2023-03-25T19:35:33.146Z,11.30
2023-03-25T19:38:23.039Z,11.20
2023-03-25T19:41:10.942Z,11.10
2023-03-25T19:43:59.318Z,11.00
2023-03-25T19:46:44.760Z,10.90
2023-03-25T19:49:39.101Z,10.90
2023-03-25T19:52:26.147Z,10.70
2023-03-25T19:55:11.891Z,10.70
2023-03-25T19:57:57.120Z,10.70
2023-03-25T20:00:42.931Z,10.50
2023-03-25T20:03:31.191Z,10.50
2023-03-25T20:06:16.828Z,10.50
2023-03-25T20:09:03.144Z,10.40
2023-03-25T20:11:48.545Z,10.40
2023-03-25T20:14:34.239Z,10.40
2023-03-25T20:17:19.721Z,10.40
2023-03-25T20:20:11.395Z,10.50
2023-03-25T20:22:58.077Z,10.50
2023-03-25T20:25:43.658Z,10.70
2023-03-25T20:28:31.323Z,10.70
2023-03-25T20:31:22.441Z,10.70
2023-03-25T20:34:07.757Z,10.80
2023-03-25T20:36:59.575Z,10.60
2023-03-25T20:39:44.880Z,10.50
2023-03-25T20:42:30.084Z,10.40
2023-03-25T20:45:18.025Z,10.40
2023-03-25T20:48:08.638Z,10.20
2023-03-25T20:51:06.522Z,10.10
2023-03-25T20:53:52.531Z,10.10
2023-03-25T20:56:40.564Z,10.00
2023-03-25T20:59:27.228Z,10.00
2023-03-25T21:02:16.697Z,9.90
2023-03-25T21:05:03.429Z,9.90
2023-03-25T21:07:49.242Z,9.90
2023-03-25T21:10:34.968Z,9.80
2023-03-25T21:13:20.572Z,9.70
2023-03-25T21:16:07.049Z,9.60
2023-03-25T21:18:53.591Z,9.60
2023-03-25T21:21:39.128Z,9.60
2023-03-25T21:24:25.354Z,9.50
2023-03-25T21:27:13.883Z,9.50
2023-03-25T21:29:59.328Z,9.50
2023-03-25T21:32:44.682Z,9.50
2023-03-25T21:35:35.323Z,9.60
2023-03-25T21:38:28.588Z,9.50
2023-03-25T21:41:17.893Z,9.50
2023-03-25T21:44:07.000Z,9.50
2023-03-25T21:46:53.710Z,9.70
2023-03-25T21:49:47.912Z,9.80
2023-03-25T21:52:34.017Z,9.80
2023-03-25T21:55:19.598Z,9.90
2023-03-25T21:58:05.369Z,9.90
2023-03-25T22:00:57.901Z,10.00
2023-03-25T22:03:49.590Z,10.00
2023-03-25T22:06:37.192Z,10.00
2023-03-25T22:09:22.954Z,10.10
2023-03-25T22:12:08.088Z,10.00
2023-03-25T22:14:53.729Z,9.90
2023-03-25T22:17:39.294Z,9.90
2023-03-25T22:20:24.899Z,9.80
2023-03-25T22:23:12.406Z,9.80
2023-03-25T22:25:57.850Z,9.90
2023-03-25T22:28:44.254Z,9.90
2023-03-25T22:31:32.917Z,9.90
2023-03-25T22:34:18.110Z,10.00
2023-03-25T22:37:05.020Z,10.10
2023-03-25T22:39:51.026Z,10.00
2023-03-25T22:42:36.207Z,10.00
2023-03-25T22:45:21.904Z,10.10
2023-03-25T22:48:07.452Z,10.10
2023-03-25T22:50:52.777Z,10.10
2023-03-25T22:53:38.633Z,10.10
2023-03-25T22:56:25.759Z,10.20
2023-03-25T22:59:13.002Z,10.20
2023-03-25T23:01:58.554Z,10.20
2023-03-25T23:04:44.970Z,10.30
2023-03-25T23:07:30.750Z,10.40
2023-03-25T23:10:16.753Z,10.30
2023-03-25T23:13:02.571Z,10.30
2023-03-25T23:15:47.869Z,10.30
2023-03-25T23:18:33.540Z,10.40
2023-03-25T23:21:22.398Z,10.40
2023-03-25T23:24:08.086Z,10.40
2023-03-25T23:26:54.211Z,10.40
2023-03-25T23:29:41.818Z,10.40
2023-03-25T23:32:29.017Z,10.40
2023-03-25T23:35:18.857Z,10.30
2023-03-25T23:38:07.344Z,10.30
2023-03-25T23:41:00.935Z,10.30
2023-03-25T23:43:46.673Z,10.40
2023-03-25T23:46:39.639Z,10.40
2023-03-25T23:49:33.040Z,10.40
2023-03-25T23:52:19.060Z,10.40
2023-03-25T23:55:04.968Z,10.40
2023-03-25T23:57:51.545Z,10.50
